Terminal Aerodrome Forecast
Issued by NWS

Home | Current Version | Previous Version | Text Only | Print | Product List | Glossary On
Versions: 1 2 3 4 5 6 7 8 9 10 11 12 13
000
FTUS42 KGSP 310900 AAA
TAFGMU
TAF AMD
KGMU 310956Z 3110/0106 04006KT P6SM BKN050
      TEMPO 3110/3112 6SM -SHRA BKN035
     FM311600 08005KT P6SM VCTS BKN045CB
     FM312300 06006KT P6SM VCTS OVC024CB=

USA.gov is the U.S. government's official web portal to all federal, state and local government web resources and services.